createdAt,value
2018-12-10T00:00:16.559Z,0.00
2018-12-10T00:01:16.586Z,0.00
2018-12-10T00:02:16.609Z,0.00
2018-12-10T00:03:16.631Z,0.00
2018-12-10T00:04:16.651Z,0.00
2018-12-10T00:05:16.674Z,0.00
2018-12-10T00:06:16.700Z,0.00
2018-12-10T00:07:16.719Z,0.00
2018-12-10T00:08:16.745Z,0.00
2018-12-10T00:09:16.766Z,0.00
2018-12-10T00:10:16.792Z,0.00
2018-12-10T00:11:16.812Z,0.00
2018-12-10T00:12:16.837Z,0.00
2018-12-10T00:13:16.860Z,0.00
2018-12-10T00:14:16.883Z,0.00
2018-12-10T00:15:16.906Z,0.00
2018-12-10T00:16:16.928Z,0.00
2018-12-10T00:17:16.950Z,0.00
2018-12-10T00:18:16.974Z,0.00
2018-12-10T00:19:16.993Z,0.00
2018-12-10T00:20:17.019Z,0.00
2018-12-10T00:21:17.039Z,0.00
2018-12-10T00:22:17.063Z,0.00
2018-12-10T00:23:17.088Z,0.00
2018-12-10T00:24:17.109Z,0.00
2018-12-10T00:25:17.132Z,0.00
2018-12-10T00:26:17.158Z,0.00
2018-12-10T00:27:17.187Z,0.00
2018-12-10T00:28:17.203Z,0.00
2018-12-10T00:29:17.224Z,0.00
2018-12-10T00:30:17.247Z,0.00
2018-12-10T00:31:17.274Z,0.00
2018-12-10T00:32:17.294Z,0.00
2018-12-10T00:33:17.318Z,0.00
2018-12-10T00:34:17.337Z,0.00
2018-12-10T00:35:17.361Z,0.00
2018-12-10T00:36:17.384Z,0.00
2018-12-10T00:37:17.407Z,0.00
2018-12-10T00:38:17.431Z,0.00
2018-12-10T00:39:17.453Z,0.00
2018-12-10T00:40:17.477Z,0.00
2018-12-10T00:41:17.500Z,0.00
2018-12-10T00:42:17.609Z,0.00
2018-12-10T00:43:17.542Z,0.00
2018-12-10T00:44:17.569Z,0.00
2018-12-10T00:45:17.590Z,0.00
2018-12-10T00:46:17.615Z,0.00
2018-12-10T00:47:17.637Z,0.00
2018-12-10T00:48:17.658Z,0.00
2018-12-10T00:49:17.683Z,0.00
2018-12-10T00:50:17.731Z,0.00
2018-12-10T00:51:17.728Z,0.00
2018-12-10T00:52:17.753Z,0.00
2018-12-10T00:53:17.772Z,0.00
2018-12-10T00:54:17.796Z,0.00
2018-12-10T00:55:17.819Z,0.00
2018-12-10T00:56:17.842Z,0.00
2018-12-10T00:57:17.863Z,0.00
2018-12-10T00:58:17.888Z,0.00
2018-12-10T00:59:17.909Z,0.00
2018-12-10T01:00:17.933Z,0.00
2018-12-10T01:01:17.956Z,0.00
2018-12-10T01:02:17.982Z,0.00
2018-12-10T01:03:18.001Z,0.00
2018-12-10T01:04:18.025Z,0.00
2018-12-10T01:05:18.044Z,0.00
2018-12-10T01:06:18.071Z,0.00
2018-12-10T01:07:18.092Z,0.00
2018-12-10T01:08:18.114Z,0.00
2018-12-10T01:09:18.138Z,0.00
2018-12-10T01:10:18.159Z,0.00
2018-12-10T01:11:18.180Z,0.00
2018-12-10T01:12:18.208Z,0.00
2018-12-10T01:13:18.227Z,0.00
2018-12-10T01:14:18.250Z,0.00
2018-12-10T01:15:18.272Z,0.00
2018-12-10T01:16:18.295Z,0.00
2018-12-10T01:17:18.322Z,0.00
2018-12-10T01:18:18.343Z,0.00
2018-12-10T01:19:18.363Z,0.00
2018-12-10T01:20:18.388Z,0.00
2018-12-10T01:21:18.409Z,0.00
2018-12-10T01:22:18.437Z,0.00
2018-12-10T01:23:18.457Z,0.00
2018-12-10T01:24:18.479Z,0.00
2018-12-10T01:25:18.500Z,0.00
2018-12-10T01:26:18.523Z,0.00
2018-12-10T01:27:18.546Z,0.00
2018-12-10T01:28:18.574Z,0.00
2018-12-10T01:29:18.594Z,0.00
2018-12-10T01:30:18.616Z,0.00
2018-12-10T01:31:18.637Z,0.00
2018-12-10T01:32:18.665Z,0.00
2018-12-10T01:33:18.682Z,0.00
2018-12-10T01:34:18.709Z,0.00
2018-12-10T01:35:18.729Z,0.00
2018-12-10T01:36:18.750Z,0.00
2018-12-10T01:37:18.773Z,0.00
2018-12-10T01:38:18.796Z,0.00
2018-12-10T01:39:18.819Z,0.00
2018-12-10T01:40:18.842Z,0.00
2018-12-10T01:41:18.908Z,0.00
2018-12-10T01:42:18.890Z,0.00
2018-12-10T01:43:18.909Z,0.00
2018-12-10T01:44:18.935Z,0.00
2018-12-10T01:45:18.956Z,0.00
2018-12-10T01:46:18.979Z,0.00
2018-12-10T01:47:19.003Z,0.00
2018-12-10T01:48:19.024Z,0.00
2018-12-10T01:49:19.050Z,0.00
2018-12-10T01:50:19.072Z,0.00
2018-12-10T01:51:19.094Z,0.00
2018-12-10T01:52:19.115Z,0.00
2018-12-10T01:53:19.140Z,0.00
2018-12-10T01:54:19.167Z,0.00
2018-12-10T01:55:19.183Z,0.00
2018-12-10T01:56:19.208Z,0.00
2018-12-10T01:57:19.228Z,0.00
2018-12-10T01:58:19.254Z,0.00
2018-12-10T01:59:19.277Z,0.00
2018-12-10T02:00:19.299Z,0.00
2018-12-10T02:01:19.323Z,0.00
2018-12-10T02:02:19.345Z,0.00
2018-12-10T02:03:19.365Z,0.00
2018-12-10T02:04:19.388Z,0.00
2018-12-10T02:05:19.413Z,0.00
2018-12-10T02:06:19.434Z,0.00
2018-12-10T02:07:19.458Z,0.00
2018-12-10T02:08:19.479Z,0.00
2018-12-10T02:09:19.507Z,0.00
2018-12-10T02:10:19.526Z,0.00
2018-12-10T02:11:19.550Z,0.00
2018-12-10T02:12:19.584Z,0.00
2018-12-10T02:13:19.597Z,0.00
2018-12-10T02:14:19.617Z,0.00
2018-12-10T02:15:19.639Z,0.00
2018-12-10T02:16:19.661Z,0.00
2018-12-10T02:17:19.687Z,0.00
2018-12-10T02:18:19.707Z,0.00
2018-12-10T02:19:19.729Z,0.00
2018-12-10T02:20:19.755Z,0.00
2018-12-10T02:21:19.779Z,0.00
2018-12-10T02:22:19.799Z,0.00
2018-12-10T02:23:19.820Z,0.00
2018-12-10T02:24:19.845Z,0.00
2018-12-10T02:25:19.868Z,0.00
2018-12-10T02:26:19.891Z,0.00
2018-12-10T02:27:19.914Z,0.00
2018-12-10T02:28:19.937Z,0.00
2018-12-10T02:29:19.960Z,0.00
2018-12-10T02:30:19.983Z,0.00
2018-12-10T02:31:20.003Z,0.00
2018-12-10T02:32:20.025Z,0.00
2018-12-10T02:33:20.089Z,0.00
2018-12-10T02:34:20.087Z,0.00
2018-12-10T02:35:20.094Z,0.00
2018-12-10T02:36:20.117Z,0.00
2018-12-10T02:37:20.141Z,0.00
2018-12-10T02:38:20.316Z,0.00
2018-12-10T02:39:20.184Z,0.00
2018-12-10T02:40:20.207Z,0.00
2018-12-10T02:41:20.232Z,0.00
2018-12-10T02:42:20.372Z,0.00
2018-12-10T02:43:20.277Z,0.00
2018-12-10T02:44:20.307Z,0.00
2018-12-10T02:45:20.319Z,0.00
2018-12-10T02:46:20.344Z,0.00
2018-12-10T02:47:20.367Z,0.00
2018-12-10T02:48:20.393Z,0.00
2018-12-10T02:49:20.421Z,0.00
2018-12-10T02:50:20.447Z,0.00
2018-12-10T02:51:20.456Z,0.00
2018-12-10T02:52:20.481Z,0.00
2018-12-10T02:53:20.502Z,0.00
2018-12-10T02:54:20.523Z,0.00
2018-12-10T02:55:20.549Z,0.00
2018-12-10T02:56:20.573Z,0.00
2018-12-10T02:57:20.598Z,0.00
2018-12-10T02:58:20.617Z,0.00
2018-12-10T02:59:20.637Z,0.00
2018-12-10T03:00:20.661Z,0.00
2018-12-10T03:01:20.685Z,0.00
2018-12-10T03:02:20.705Z,0.00
2018-12-10T03:03:20.727Z,0.00
2018-12-10T03:04:20.752Z,0.00
2018-12-10T03:05:20.773Z,0.00
2018-12-10T03:06:20.797Z,0.00
2018-12-10T03:07:20.821Z,0.00
2018-12-10T03:08:20.844Z,0.00
2018-12-10T03:09:20.866Z,0.00
2018-12-10T03:10:20.885Z,0.00
2018-12-10T03:11:20.908Z,0.00
2018-12-10T03:12:20.932Z,0.00
2018-12-10T03:13:20.953Z,0.00
2018-12-10T03:14:20.979Z,0.00
2018-12-10T03:15:20.999Z,0.00
2018-12-10T03:16:21.023Z,0.00
2018-12-10T03:17:21.060Z,0.00
2018-12-10T03:18:21.068Z,0.00
2018-12-10T03:19:21.090Z,0.00
2018-12-10T03:20:21.113Z,0.00
2018-12-10T03:21:21.146Z,0.00
2018-12-10T03:22:21.157Z,0.00
2018-12-10T03:23:21.181Z,0.00
2018-12-10T03:24:21.211Z,0.00
2018-12-10T03:25:21.224Z,0.00
2018-12-10T03:26:21.247Z,0.00
2018-12-10T03:27:21.269Z,0.00
2018-12-10T03:28:21.296Z,0.00
2018-12-10T03:29:21.314Z,0.00
2018-12-10T03:30:21.340Z,0.00
2018-12-10T03:31:21.370Z,0.00
2018-12-10T03:32:21.387Z,0.00
2018-12-10T03:33:21.429Z,0.00
2018-12-10T03:34:21.427Z,0.00
2018-12-10T03:35:21.451Z,0.00
2018-12-10T03:36:21.473Z,0.00
2018-12-10T03:37:21.500Z,0.00
2018-12-10T03:38:21.522Z,0.00
2018-12-10T03:39:21.539Z,0.00
2018-12-10T03:40:21.565Z,0.00
2018-12-10T03:41:21.586Z,0.00
2018-12-10T03:42:21.608Z,0.00
2018-12-10T03:43:21.630Z,0.00
2018-12-10T03:44:21.654Z,0.00
2018-12-10T03:45:21.673Z,0.00
2018-12-10T03:46:21.697Z,0.00
2018-12-10T03:47:21.731Z,0.00
2018-12-10T03:48:21.757Z,0.00
2018-12-10T03:49:21.765Z,0.00
2018-12-10T03:50:21.788Z,0.00
2018-12-10T03:51:21.811Z,0.00
2018-12-10T03:52:21.834Z,0.00
2018-12-10T03:53:21.858Z,0.00
2018-12-10T03:54:21.881Z,0.00
2018-12-10T03:55:21.901Z,0.00
2018-12-10T03:56:21.924Z,0.00
2018-12-10T03:57:21.948Z,0.00
2018-12-10T03:58:21.971Z,0.00
2018-12-10T03:59:21.991Z,0.00
2018-12-10T04:00:22.014Z,0.00
2018-12-10T04:01:22.039Z,0.00
2018-12-10T04:02:22.058Z,0.00
2018-12-10T04:03:22.079Z,0.00
2018-12-10T04:04:22.102Z,0.00
2018-12-10T04:05:22.127Z,0.00
2018-12-10T04:06:22.148Z,0.00
2018-12-10T04:07:22.171Z,0.00
2018-12-10T04:08:22.192Z,0.00
2018-12-10T04:09:22.217Z,0.00
2018-12-10T04:10:22.238Z,0.00
2018-12-10T04:11:22.261Z,0.00
2018-12-10T04:12:22.287Z,0.00
2018-12-10T04:13:22.308Z,0.00
2018-12-10T04:14:22.328Z,0.00
2018-12-10T04:15:22.347Z,0.00
2018-12-10T04:16:22.375Z,0.00
2018-12-10T04:17:22.407Z,0.00
2018-12-10T04:18:22.418Z,0.00
2018-12-10T04:19:22.439Z,0.00
2018-12-10T04:20:22.462Z,0.00
2018-12-10T04:21:22.486Z,0.00
2018-12-10T04:22:22.510Z,0.00
2018-12-10T04:23:22.529Z,0.00
2018-12-10T04:24:22.553Z,0.00
2018-12-10T04:25:22.577Z,0.00
2018-12-10T04:26:22.604Z,0.00
2018-12-10T04:27:22.622Z,0.00
2018-12-10T04:29:22.663Z,0.00
2018-12-10T04:30:22.685Z,0.00
2018-12-10T04:31:22.710Z,0.00
2018-12-10T04:32:22.729Z,0.00
2018-12-10T04:33:22.754Z,0.00
2018-12-10T04:34:22.777Z,0.00
2018-12-10T04:35:22.799Z,0.00
2018-12-10T04:36:22.821Z,0.00
2018-12-10T04:37:22.848Z,0.00
2018-12-10T04:38:22.865Z,0.00
2018-12-10T04:39:22.891Z,0.00
2018-12-10T04:40:22.911Z,0.00
2018-12-10T04:41:22.936Z,0.00
2018-12-10T04:42:22.957Z,0.00
2018-12-10T04:43:22.979Z,0.00
2018-12-10T04:44:23.001Z,0.00
2018-12-10T04:45:23.023Z,0.00
2018-12-10T04:46:23.044Z,0.00
2018-12-10T04:47:23.066Z,0.00
2018-12-10T04:48:23.089Z,0.00
2018-12-10T04:49:23.111Z,0.00
2018-12-10T04:50:23.136Z,0.00
2018-12-10T04:51:23.155Z,0.00
2018-12-10T04:52:23.180Z,0.00
2018-12-10T04:53:23.203Z,0.00
2018-12-10T04:54:23.226Z,0.00
2018-12-10T04:55:23.245Z,0.00
2018-12-10T04:56:23.268Z,0.00
2018-12-10T04:57:23.290Z,0.00
2018-12-10T04:58:23.315Z,0.00
2018-12-10T04:59:23.336Z,0.00
2018-12-10T05:00:23.363Z,0.00
2018-12-10T05:01:23.383Z,0.00
2018-12-10T05:02:23.405Z,0.00
2018-12-10T05:03:23.424Z,0.00
2018-12-10T05:04:23.451Z,0.00
2018-12-10T05:05:23.472Z,0.00
2018-12-10T05:06:23.492Z,0.00
2018-12-10T05:07:23.518Z,0.00
2018-12-10T05:08:23.540Z,0.00
2018-12-10T05:09:23.560Z,0.00
2018-12-10T05:10:23.584Z,0.00
2018-12-10T05:11:23.606Z,0.00
2018-12-10T05:12:23.629Z,0.00
2018-12-10T05:13:23.652Z,0.00
2018-12-10T05:14:23.674Z,0.00
2018-12-10T05:15:23.697Z,0.00
2018-12-10T05:16:23.719Z,0.00
2018-12-10T05:17:23.738Z,0.00
2018-12-10T05:18:23.764Z,0.00
2018-12-10T05:19:23.839Z,0.00
2018-12-10T05:20:23.807Z,0.00
2018-12-10T05:21:23.829Z,0.00
2018-12-10T05:22:23.854Z,0.00
2018-12-10T05:23:23.874Z,0.00
2018-12-10T05:24:23.897Z,0.00
2018-12-10T05:25:23.921Z,0.00
2018-12-10T05:26:23.941Z,0.00
2018-12-10T05:27:23.962Z,0.00
2018-12-10T05:28:23.988Z,0.00
2018-12-10T05:29:24.010Z,0.00
2018-12-10T05:30:24.033Z,0.00
2018-12-10T05:31:24.055Z,0.00
2018-12-10T05:32:24.077Z,0.00
2018-12-10T05:33:24.099Z,0.00
2018-12-10T05:34:24.122Z,0.00
2018-12-10T05:35:24.141Z,0.00
2018-12-10T05:36:24.165Z,0.00
2018-12-10T05:37:24.188Z,0.00
2018-12-10T05:38:24.212Z,0.00
2018-12-10T05:39:24.233Z,0.00
2018-12-10T05:40:24.256Z,0.00
2018-12-10T05:41:24.276Z,0.00
2018-12-10T05:42:24.302Z,0.00
2018-12-10T05:43:24.321Z,0.00
2018-12-10T05:44:24.345Z,0.00
2018-12-10T05:45:24.370Z,0.00
2018-12-10T05:46:24.391Z,0.00
2018-12-10T05:47:24.415Z,0.00
2018-12-10T05:48:24.433Z,0.00
2018-12-10T05:49:24.460Z,0.00
2018-12-10T05:50:24.481Z,0.00
2018-12-10T05:51:24.502Z,0.00
2018-12-10T05:52:24.523Z,0.00
2018-12-10T05:53:24.549Z,0.00
2018-12-10T05:54:24.575Z,0.00
2018-12-10T05:55:24.593Z,0.00
2018-12-10T05:56:24.611Z,0.00
2018-12-10T05:57:24.638Z,0.00
2018-12-10T05:58:24.661Z,0.00
2018-12-10T05:59:24.680Z,0.00
2018-12-10T06:00:24.709Z,0.00
2018-12-10T06:01:24.726Z,0.00
2018-12-10T06:02:24.749Z,0.00
2018-12-10T06:03:24.770Z,0.00
2018-12-10T06:04:24.892Z,0.00
2018-12-10T06:05:24.814Z,0.00
2018-12-10T06:06:24.838Z,0.00
2018-12-10T06:07:24.858Z,0.00
2018-12-10T06:08:24.880Z,0.00
2018-12-10T06:09:24.905Z,0.00
2018-12-10T06:10:24.926Z,0.00
2018-12-10T06:11:24.948Z,0.00
2018-12-10T06:12:24.968Z,0.00
2018-12-10T06:13:24.993Z,0.00
2018-12-10T06:14:25.076Z,0.00
2018-12-10T06:15:25.039Z,0.00
2018-12-10T06:16:25.059Z,0.00
2018-12-10T06:17:25.081Z,0.00
2018-12-10T06:18:25.105Z,0.00
2018-12-10T06:19:25.126Z,0.00
2018-12-10T06:20:25.148Z,0.00
2018-12-10T06:21:25.213Z,0.00
2018-12-10T06:22:25.195Z,0.00
2018-12-10T06:23:25.216Z,0.00
2018-12-10T06:24:25.239Z,0.00
2018-12-10T06:25:25.262Z,0.00
2018-12-10T06:26:25.284Z,0.00
2018-12-10T06:27:25.306Z,0.00
2018-12-10T06:28:25.327Z,0.00
2018-12-10T06:29:25.352Z,0.00
2018-12-10T06:30:25.377Z,0.00
2018-12-10T06:31:25.395Z,0.00
2018-12-10T06:32:25.417Z,0.00
2018-12-10T06:33:25.440Z,0.00
2018-12-10T06:34:25.466Z,0.00
2018-12-10T06:35:25.486Z,0.00
2018-12-10T06:36:25.504Z,0.00
2018-12-10T06:37:25.530Z,0.00
2018-12-10T06:38:25.552Z,0.00
2018-12-10T06:39:25.574Z,0.00
2018-12-10T06:40:25.597Z,0.00
2018-12-10T06:41:25.617Z,0.00
2018-12-10T06:42:25.642Z,0.00
2018-12-10T06:43:25.661Z,0.00
2018-12-10T06:44:25.684Z,0.00
2018-12-10T06:45:25.707Z,0.00
2018-12-10T06:46:25.731Z,0.00
2018-12-10T06:47:25.753Z,0.00
2018-12-10T06:48:25.788Z,0.00
2018-12-10T06:49:25.798Z,0.00
2018-12-10T06:50:25.821Z,0.00
2018-12-10T06:51:25.844Z,0.00
2018-12-10T06:52:25.863Z,0.00
2018-12-10T06:53:25.887Z,0.00
2018-12-10T06:54:25.909Z,0.00
2018-12-10T06:55:25.931Z,0.00
2018-12-10T06:56:25.954Z,0.00
2018-12-10T06:57:25.977Z,0.00
2018-12-10T06:58:25.997Z,0.00
2018-12-10T06:59:26.019Z,0.00
2018-12-10T07:00:26.041Z,0.00
2018-12-10T07:01:26.063Z,0.00
2018-12-10T07:02:26.088Z,0.00
2018-12-10T07:03:26.110Z,0.00
2018-12-10T07:04:26.133Z,0.00
2018-12-10T07:05:26.154Z,0.00
2018-12-10T07:06:26.175Z,0.00
2018-12-10T07:07:26.198Z,0.00
2018-12-10T07:08:26.219Z,0.00
2018-12-10T07:09:26.242Z,0.00
2018-12-10T07:10:26.265Z,0.00
2018-12-10T07:11:26.288Z,0.00
2018-12-10T07:12:26.310Z,0.00
2018-12-10T07:13:26.334Z,0.00
2018-12-10T07:14:26.356Z,0.00
2018-12-10T07:15:26.380Z,0.00
2018-12-10T07:16:26.399Z,0.00
2018-12-10T07:17:26.422Z,0.00
2018-12-10T07:18:26.445Z,0.00
2018-12-10T07:19:26.466Z,5.63
2018-12-10T07:20:26.490Z,5.63
2018-12-10T07:21:26.513Z,5.63
2018-12-10T07:22:26.534Z,5.63
2018-12-10T07:23:26.554Z,5.63
2018-12-10T07:24:26.581Z,5.63
2018-12-10T07:25:26.601Z,5.63
2018-12-10T07:26:26.623Z,5.63
2018-12-10T07:27:26.742Z,11.25
2018-12-10T07:28:26.664Z,11.25
2018-12-10T07:29:26.689Z,11.25
2018-12-10T07:30:26.712Z,11.25
2018-12-10T07:31:26.733Z,11.25
2018-12-10T07:32:26.753Z,11.25
2018-12-10T07:33:26.776Z,16.88
2018-12-10T07:34:26.842Z,16.88
2018-12-10T07:35:26.823Z,16.88
2018-12-10T07:36:26.842Z,16.88
2018-12-10T07:37:26.867Z,16.88
2018-12-10T07:38:26.890Z,22.50
2018-12-10T07:39:26.911Z,22.50
2018-12-10T07:40:26.934Z,22.50
2018-12-10T07:41:26.954Z,28.13
2018-12-10T07:42:26.976Z,28.13
2018-12-10T07:43:26.998Z,28.13
2018-12-10T07:44:27.024Z,33.75
2018-12-10T07:45:27.043Z,33.75
2018-12-10T07:46:27.068Z,33.75
2018-12-10T07:47:27.091Z,33.75
2018-12-10T07:48:27.112Z,33.75
2018-12-10T07:49:27.134Z,33.75
2018-12-10T07:50:27.159Z,33.75
2018-12-10T07:51:27.178Z,33.75
2018-12-10T07:52:27.199Z,33.75
2018-12-10T07:53:27.223Z,39.38
2018-12-10T07:54:27.244Z,39.38
2018-12-10T07:55:27.269Z,45.00
2018-12-10T07:56:29.032Z,50.63
2018-12-10T07:57:27.313Z,56.25
2018-12-10T07:58:27.336Z,50.63
2018-12-10T07:59:27.360Z,50.63
2018-12-10T08:00:27.474Z,50.63
2018-12-10T08:01:27.402Z,50.63
2018-12-10T08:02:27.424Z,50.63
2018-12-10T08:03:27.446Z,50.63
2018-12-10T08:04:27.469Z,50.63
2018-12-10T08:05:27.491Z,56.25
2018-12-10T08:06:27.514Z,50.63
2018-12-10T08:07:27.533Z,50.63
2018-12-10T08:08:27.558Z,56.25
2018-12-10T08:09:27.581Z,56.25
2018-12-10T08:10:27.603Z,67.50
2018-12-10T08:11:27.622Z,67.50
2018-12-10T08:12:27.647Z,73.13
2018-12-10T08:13:27.669Z,78.75
2018-12-10T08:14:27.691Z,73.13
2018-12-10T08:15:27.713Z,67.50
2018-12-10T08:16:27.734Z,61.88
2018-12-10T08:17:27.757Z,56.25
2018-12-10T08:18:27.780Z,56.25
2018-12-10T08:19:27.803Z,50.63
2018-12-10T08:20:27.828Z,56.25
2018-12-10T08:21:27.849Z,56.25
2018-12-10T08:22:27.875Z,56.25
2018-12-10T08:23:27.908Z,56.25
2018-12-10T08:24:27.914Z,56.25
2018-12-10T08:25:27.939Z,61.88
2018-12-10T08:26:27.959Z,67.50
2018-12-10T08:27:27.981Z,84.38
2018-12-10T08:28:28.003Z,84.38
2018-12-10T08:29:28.026Z,90.00
2018-12-10T08:30:28.050Z,112.50
2018-12-10T08:31:28.146Z,135.00
2018-12-10T08:32:28.097Z,151.88
2018-12-10T08:33:28.118Z,151.88
2018-12-10T08:34:28.141Z,146.25
2018-12-10T08:35:28.160Z,123.75
2018-12-10T08:36:28.188Z,106.88
2018-12-10T08:37:28.209Z,95.63
2018-12-10T08:38:28.232Z,95.63
2018-12-10T08:39:28.250Z,95.63
2018-12-10T08:40:28.274Z,95.63
2018-12-10T08:41:28.297Z,101.25
2018-12-10T08:42:28.468Z,106.88
2018-12-10T08:43:28.342Z,106.88
2018-12-10T08:44:28.365Z,112.50
2018-12-10T08:45:28.420Z,112.50
2018-12-10T08:46:28.416Z,118.13
2018-12-10T08:47:28.434Z,123.75
2018-12-10T08:48:28.457Z,135.00
2018-12-10T08:49:28.480Z,140.63
2018-12-10T08:50:28.506Z,146.25
2018-12-10T08:51:28.523Z,151.88
2018-12-10T08:52:28.549Z,174.38
2018-12-10T08:53:28.571Z,196.88
2018-12-10T08:54:28.593Z,213.75
2018-12-10T08:55:28.616Z,230.63
2018-12-10T08:56:28.637Z,230.63
2018-12-10T08:57:28.663Z,213.75
2018-12-10T08:58:28.686Z,180.00
2018-12-10T08:59:28.708Z,151.88
2018-12-10T09:00:28.731Z,112.50
2018-12-10T09:01:28.757Z,61.88
2018-12-10T09:02:28.778Z,39.38
2018-12-10T09:03:28.798Z,33.75
2018-12-10T09:04:28.821Z,33.75
2018-12-10T09:05:28.845Z,33.75
2018-12-10T09:06:28.869Z,39.38
2018-12-10T09:07:28.889Z,45.00
2018-12-10T09:08:28.913Z,39.38
2018-12-10T09:09:28.938Z,45.00
2018-12-10T09:10:28.959Z,45.00
2018-12-10T09:11:28.981Z,67.50
2018-12-10T09:12:29.007Z,101.25
2018-12-10T09:13:29.031Z,135.00
2018-12-10T09:14:29.052Z,146.25
2018-12-10T09:15:29.074Z,157.50
2018-12-10T09:16:29.094Z,191.25
2018-12-10T09:17:29.121Z,360.00
2018-12-10T09:18:29.142Z,450.00
2018-12-10T09:19:29.164Z,641.25
2018-12-10T09:20:29.189Z,1051.88
2018-12-10T09:21:29.211Z,191.25
2018-12-10T09:22:29.234Z,506.25
2018-12-10T09:23:29.259Z,984.38
2018-12-10T09:24:29.280Z,1063.13
2018-12-10T09:25:29.306Z,860.63
2018-12-10T09:26:29.449Z,360.00
2018-12-10T09:27:29.350Z,568.13
2018-12-10T09:28:29.377Z,1417.50
2018-12-10T09:29:29.409Z,725.63
2018-12-10T09:30:29.426Z,399.38
2018-12-10T09:31:29.448Z,466.88
2018-12-10T09:32:29.474Z,1333.13
2018-12-10T09:33:29.501Z,489.38
2018-12-10T09:34:29.548Z,686.25
2018-12-10T09:35:29.546Z,1400.63
2018-12-10T09:36:29.574Z,1434.38
2018-12-10T09:37:29.599Z,1530.00
2018-12-10T09:38:29.625Z,1490.63
2018-12-10T09:39:30.324Z,1243.13
2018-12-10T09:40:29.674Z,961.88
2018-12-10T09:41:29.700Z,590.63
2018-12-10T09:42:29.731Z,208.13
2018-12-10T09:43:29.753Z,258.75
2018-12-10T09:44:29.778Z,275.63
2018-12-10T09:45:29.808Z,253.13
2018-12-10T09:46:29.832Z,264.38
2018-12-10T09:47:29.861Z,303.75
2018-12-10T09:48:29.890Z,315.00
2018-12-10T09:49:29.913Z,292.50
2018-12-10T09:50:29.939Z,258.75
2018-12-10T09:51:29.966Z,247.50
2018-12-10T09:52:29.990Z,281.25
2018-12-10T09:53:30.018Z,270.00
2018-12-10T09:54:30.040Z,281.25
2018-12-10T09:55:30.065Z,275.63
2018-12-10T09:56:30.093Z,253.13
2018-12-10T09:57:30.118Z,241.88
2018-12-10T09:58:30.144Z,213.75
2018-12-10T09:59:30.167Z,213.75
2018-12-10T10:00:30.195Z,208.13
2018-12-10T10:01:30.218Z,213.75
2018-12-10T10:02:30.245Z,219.38
2018-12-10T10:03:30.271Z,219.38
2018-12-10T10:04:30.294Z,219.38
2018-12-10T10:05:30.320Z,236.25
2018-12-10T10:06:30.345Z,286.88
2018-12-10T10:07:30.368Z,354.38
2018-12-10T10:08:30.400Z,388.13
2018-12-10T10:09:30.419Z,388.13
2018-12-10T10:10:30.444Z,371.25
2018-12-10T10:11:30.465Z,365.63
2018-12-10T10:12:30.490Z,371.25
2018-12-10T10:13:30.515Z,399.38
2018-12-10T10:14:30.544Z,405.00
2018-12-10T10:15:30.573Z,376.88
2018-12-10T10:16:30.589Z,286.88
2018-12-10T10:17:30.617Z,213.75
2018-12-10T10:18:30.641Z,185.63
2018-12-10T10:19:30.665Z,168.75
2018-12-10T10:20:30.775Z,163.13
2018-12-10T10:21:30.717Z,140.63
2018-12-10T10:22:30.841Z,129.38
2018-12-10T10:23:30.764Z,118.13
2018-12-10T10:24:30.788Z,118.13
2018-12-10T10:25:30.812Z,118.13
2018-12-10T10:26:30.835Z,140.63
2018-12-10T10:27:30.954Z,146.25
2018-12-10T10:28:30.887Z,151.88
2018-12-10T10:29:30.910Z,140.63
2018-12-10T10:30:30.935Z,106.88
2018-12-10T10:31:31.594Z,84.38
2018-12-10T10:32:30.981Z,78.75
2018-12-10T10:33:32.480Z,90.00
2018-12-10T10:34:31.033Z,95.63
2018-12-10T10:35:31.054Z,101.25
2018-12-10T10:36:31.084Z,123.75
2018-12-10T10:37:31.105Z,140.63
2018-12-10T10:38:31.133Z,191.25
2018-12-10T10:39:31.150Z,230.63
2018-12-10T10:40:31.177Z,208.13
2018-12-10T10:41:31.628Z,135.00
2018-12-10T10:42:31.225Z,168.75
2018-12-10T10:43:31.247Z,174.38
2018-12-10T10:44:31.273Z,163.13
2018-12-10T10:45:34.922Z,174.38
2018-12-10T10:46:31.321Z,146.25
2018-12-10T10:47:31.342Z,129.38
2018-12-10T10:48:31.367Z,135.00
2018-12-10T10:49:31.391Z,129.38
2018-12-10T10:50:31.415Z,118.13
2018-12-10T10:51:31.440Z,106.88
2018-12-10T10:52:33.346Z,90.00
2018-12-10T10:53:31.492Z,84.38
2018-12-10T10:54:31.510Z,78.75
2018-12-10T10:55:31.537Z,78.75
2018-12-10T10:56:31.557Z,73.13
2018-12-10T10:57:31.648Z,84.38
2018-12-10T10:58:31.606Z,78.75
2018-12-10T10:59:31.632Z,78.75
2018-12-10T11:00:31.655Z,95.63
2018-12-10T11:01:31.682Z,106.88
2018-12-10T11:02:31.703Z,112.50
2018-12-10T11:03:31.723Z,90.00
2018-12-10T11:04:37.668Z,90.00
2018-12-10T11:05:31.771Z,140.63
2018-12-10T11:06:31.796Z,225.00
2018-12-10T11:07:31.819Z,180.00
2018-12-10T11:08:31.847Z,118.13
2018-12-10T11:09:31.865Z,106.88
2018-12-10T11:10:31.893Z,112.50
2018-12-10T11:11:31.917Z,90.00
2018-12-10T11:12:31.939Z,90.00
2018-12-10T11:13:31.962Z,106.88
2018-12-10T11:14:31.986Z,157.50
2018-12-10T11:15:32.009Z,163.13
2018-12-10T11:16:32.035Z,202.50
2018-12-10T11:17:32.056Z,275.63
2018-12-10T11:18:32.077Z,219.38
2018-12-10T11:19:32.100Z,208.13
2018-12-10T11:20:32.127Z,208.13
2018-12-10T11:21:32.151Z,213.75
2018-12-10T11:22:32.172Z,219.38
2018-12-10T11:23:32.195Z,225.00
2018-12-10T11:24:32.221Z,225.00
2018-12-10T11:25:32.245Z,213.75
2018-12-10T11:26:32.266Z,191.25
2018-12-10T11:27:32.312Z,174.38
2018-12-10T11:28:32.320Z,180.00
2018-12-10T11:29:32.338Z,202.50
2018-12-10T11:30:32.363Z,213.75
2018-12-10T11:31:32.383Z,225.00
2018-12-10T11:32:32.407Z,202.50
2018-12-10T11:33:32.431Z,191.25
2018-12-10T11:34:32.457Z,225.00
2018-12-10T11:35:32.479Z,258.75
2018-12-10T11:36:32.504Z,270.00
2018-12-10T11:37:32.525Z,230.63
2018-12-10T11:38:32.555Z,168.75
2018-12-10T11:39:32.575Z,112.50
2018-12-10T11:40:32.599Z,61.88
2018-12-10T11:41:32.623Z,45.00
2018-12-10T11:42:32.646Z,45.00
2018-12-10T11:43:32.671Z,39.38
2018-12-10T11:44:32.691Z,39.38
2018-12-10T11:45:32.718Z,33.75
2018-12-10T11:46:32.741Z,28.13
2018-12-10T11:47:32.764Z,61.88
2018-12-10T11:48:32.787Z,101.25
2018-12-10T11:49:32.811Z,101.25
2018-12-10T11:50:32.832Z,90.00
2018-12-10T11:51:32.856Z,67.50
2018-12-10T11:52:32.882Z,61.88
2018-12-10T11:53:32.906Z,50.63
2018-12-10T11:54:32.930Z,39.38
2018-12-10T11:55:32.949Z,39.38
2018-12-10T11:56:32.974Z,50.63
2018-12-10T11:57:32.998Z,67.50
2018-12-10T11:58:33.026Z,61.88
2018-12-10T11:59:33.048Z,84.38
2018-12-10T12:00:33.071Z,73.13
2018-12-10T12:01:33.092Z,78.75
2018-12-10T12:02:33.116Z,84.38
2018-12-10T12:03:33.141Z,73.13
2018-12-10T12:04:33.162Z,73.13
2018-12-10T12:05:33.188Z,73.13
2018-12-10T12:06:33.212Z,67.50
2018-12-10T12:07:33.235Z,84.38
2018-12-10T12:08:33.258Z,95.63
2018-12-10T12:09:33.282Z,101.25
2018-12-10T12:10:33.304Z,106.88
2018-12-10T12:11:33.328Z,106.88
2018-12-10T12:12:33.352Z,118.13
2018-12-10T12:13:33.376Z,140.63
2018-12-10T12:14:33.400Z,157.50
2018-12-10T12:15:33.422Z,258.75
2018-12-10T12:16:33.445Z,1428.75
2018-12-10T12:17:33.467Z,303.75
2018-12-10T12:18:33.492Z,281.25
2018-12-10T12:19:33.516Z,180.00
2018-12-10T12:20:33.543Z,253.13
2018-12-10T12:21:33.565Z,601.88
2018-12-10T12:22:33.587Z,1170.00
2018-12-10T12:23:33.612Z,1400.63
2018-12-10T12:24:33.634Z,1080.00
2018-12-10T12:25:33.659Z,618.75
2018-12-10T12:26:33.686Z,1282.50
2018-12-10T12:27:33.710Z,1310.63
2018-12-10T12:28:33.732Z,1164.38
2018-12-10T12:29:33.757Z,1203.75
2018-12-10T12:30:33.786Z,500.63
2018-12-10T12:31:33.810Z,1136.25
2018-12-10T12:32:33.836Z,990.00
2018-12-10T12:33:33.861Z,1130.63
2018-12-10T12:34:33.887Z,438.75
2018-12-10T12:35:33.913Z,264.38
2018-12-10T12:36:33.939Z,208.13
2018-12-10T12:37:33.963Z,196.88
2018-12-10T12:38:33.989Z,196.88
2018-12-10T12:39:34.015Z,118.13
2018-12-10T12:40:34.043Z,112.50
2018-12-10T12:41:34.067Z,129.38
2018-12-10T12:42:34.098Z,135.00
2018-12-10T12:43:34.120Z,129.38
2018-12-10T12:44:34.146Z,118.13
2018-12-10T12:45:34.244Z,106.88
2018-12-10T12:46:34.196Z,106.88
2018-12-10T12:47:34.220Z,129.38
2018-12-10T12:48:34.248Z,163.13
2018-12-10T12:49:34.272Z,208.13
2018-12-10T12:50:34.298Z,202.50
2018-12-10T12:51:34.324Z,213.75
2018-12-10T12:52:34.349Z,281.25
2018-12-10T12:53:34.509Z,208.13
2018-12-10T12:54:34.400Z,607.50
2018-12-10T12:55:34.423Z,511.88
2018-12-10T12:56:34.449Z,281.25
2018-12-10T12:57:34.475Z,1018.13
2018-12-10T12:58:34.500Z,1063.13
2018-12-10T12:59:34.524Z,1063.13
2018-12-10T13:00:41.861Z,950.63